createdAt,value
2023-05-11T00:01:57.006Z,18.90
2023-05-11T00:04:23.993Z,16.87
2023-05-11T00:06:50.904Z,21.80
2023-05-11T00:09:17.695Z,19.37
2023-05-11T00:11:44.476Z,21.83
2023-05-11T00:14:11.282Z,17.33
2023-05-11T00:16:38.042Z,21.07
2023-05-11T00:19:04.905Z,21.77
2023-05-11T00:21:32.335Z,22.33
2023-05-11T00:23:59.143Z,24.00
2023-05-11T00:26:26.765Z,23.83
2023-05-11T00:28:53.561Z,20.73
2023-05-11T00:31:20.496Z,21.87
2023-05-11T00:33:47.269Z,21.70
2023-05-11T00:36:14.084Z,26.33
2023-05-11T00:38:41.384Z,21.13
2023-05-11T00:41:08.791Z,22.30
2023-05-11T00:43:35.778Z,25.60
2023-05-11T00:46:03.772Z,22.07
2023-05-11T00:48:30.838Z,22.97
2023-05-11T00:51:00.119Z,22.20
2023-05-11T00:53:27.088Z,24.47
2023-05-11T00:55:54.416Z,26.63
2023-05-11T00:58:21.527Z,25.37
2023-05-11T01:00:48.376Z,24.53
2023-05-11T01:03:16.271Z,24.87
2023-05-11T01:06:18.410Z,23.03
2023-05-11T01:08:47.666Z,27.07
2023-05-11T01:11:34.781Z,22.93
2023-05-11T01:14:12.681Z,25.47
2023-05-11T01:16:41.452Z,26.20
2023-05-11T01:19:12.994Z,24.30
2023-05-11T01:21:40.804Z,29.77
2023-05-11T01:24:46.526Z,27.93
2023-05-11T01:27:42.523Z,28.37
2023-05-11T01:30:25.095Z,28.03
2023-05-11T01:32:56.148Z,26.33
2023-05-11T01:35:26.504Z,27.20
2023-05-11T01:37:58.279Z,28.23
2023-05-11T01:40:29.130Z,26.27
2023-05-11T01:43:02.640Z,25.20
2023-05-11T01:45:33.831Z,27.70
2023-05-11T01:48:04.367Z,31.67
2023-05-11T01:50:32.763Z,26.00
2023-05-11T01:53:01.459Z,26.10
2023-05-11T01:55:31.315Z,29.40
2023-05-11T01:58:00.321Z,30.17
2023-05-11T02:00:27.369Z,27.93
2023-05-11T02:02:55.726Z,29.47
2023-05-11T02:05:25.147Z,28.67
2023-05-11T02:07:54.220Z,34.73
2023-05-11T02:10:25.287Z,28.10
2023-05-11T02:12:54.115Z,32.83
2023-05-11T02:15:22.760Z,30.83
2023-05-11T02:17:51.309Z,29.70
2023-05-11T02:20:19.719Z,29.40
2023-05-11T02:22:47.488Z,31.67
2023-05-11T02:25:15.557Z,27.00
2023-05-11T02:27:42.616Z,31.83
2023-05-11T02:30:10.154Z,31.53
2023-05-11T02:32:42.500Z,31.90
2023-05-11T02:35:18.609Z,32.20
2023-05-11T02:37:48.189Z,29.73
2023-05-11T02:40:24.410Z,28.07
2023-05-11T02:42:58.649Z,31.03
2023-05-11T02:45:31.124Z,29.73
2023-05-11T02:48:00.567Z,29.80
2023-05-11T02:50:30.487Z,27.83
2023-05-11T02:53:01.614Z,28.33
2023-05-11T02:55:29.866Z,31.10
2023-05-11T02:57:57.012Z,27.47
2023-05-11T03:00:24.106Z,30.10
2023-05-11T03:02:51.189Z,26.27
2023-05-11T03:05:18.320Z,28.73
2023-05-11T03:07:45.447Z,30.00
2023-05-11T03:10:12.393Z,27.10
2023-05-11T03:12:39.397Z,27.77
2023-05-11T03:15:07.797Z,28.30
2023-05-11T03:17:36.404Z,29.67
2023-05-11T03:20:04.382Z,27.47
2023-05-11T03:22:32.626Z,26.60
2023-05-11T03:25:00.525Z,30.57
2023-05-11T03:27:29.045Z,26.43
2023-05-11T03:29:57.511Z,28.27
2023-05-11T03:32:24.831Z,31.27
2023-05-11T03:34:52.285Z,31.53
2023-05-11T03:37:20.646Z,23.83
2023-05-11T03:39:52.402Z,30.10
2023-05-11T03:42:21.093Z,30.10
2023-05-11T03:44:49.667Z,25.50
2023-05-11T03:47:18.718Z,26.37
2023-05-11T03:49:46.230Z,28.37
2023-05-11T03:52:13.763Z,29.47
2023-05-11T03:54:42.720Z,26.53
2023-05-11T03:57:10.478Z,29.27
2023-05-11T03:59:39.847Z,26.13
2023-05-11T04:02:07.366Z,25.03
2023-05-11T04:04:34.622Z,27.00
2023-05-11T04:07:01.642Z,29.10
2023-05-11T04:09:28.440Z,29.63
2023-05-11T04:11:55.222Z,29.10
2023-05-11T04:14:21.954Z,27.13
2023-05-11T04:16:48.722Z,29.00
2023-05-11T04:19:16.603Z,24.53
2023-05-11T04:21:43.447Z,35.40
2023-05-11T04:24:10.232Z,27.27
2023-05-11T04:26:37.037Z,25.60
2023-05-11T04:29:03.964Z,27.23
2023-05-11T04:31:31.027Z,26.53
2023-05-11T04:33:57.852Z,29.73
2023-05-11T04:36:25.028Z,30.17
2023-05-11T04:38:53.344Z,30.80
2023-05-11T04:41:20.796Z,25.47
2023-05-11T04:43:47.626Z,29.27
2023-05-11T04:46:14.510Z,27.90
2023-05-11T04:48:41.843Z,27.93
2023-05-11T04:51:08.675Z,29.53
2023-05-11T04:53:35.446Z,28.00
2023-05-11T04:56:02.233Z,30.13
2023-05-11T04:58:29.116Z,30.07
2023-05-11T05:00:55.892Z,29.47
2023-05-11T05:03:22.792Z,27.67
2023-05-11T05:05:49.648Z,29.40
2023-05-11T05:08:17.704Z,30.93
2023-05-11T05:10:44.551Z,26.63
2023-05-11T05:13:11.453Z,29.10
2023-05-11T05:15:38.300Z,30.77
2023-05-11T05:18:05.210Z,27.43
2023-05-11T05:20:32.072Z,33.90
2023-05-11T05:22:59.071Z,30.77
2023-05-11T05:25:25.827Z,31.47
2023-05-11T05:27:52.538Z,33.63
2023-05-11T05:30:19.752Z,33.00
2023-05-11T05:32:46.894Z,31.87
2023-05-11T05:35:13.739Z,30.77
2023-05-11T05:37:40.596Z,34.37
2023-05-11T05:40:08.019Z,36.53
2023-05-11T05:42:34.829Z,34.53
2023-05-11T05:45:01.631Z,33.83
2023-05-11T05:47:28.422Z,36.07
2023-05-11T05:49:55.304Z,32.93
2023-05-11T05:52:22.090Z,42.93
2023-05-11T05:54:48.940Z,38.33
2023-05-11T05:57:15.985Z,44.87
2023-05-11T05:59:42.896Z,39.77
2023-05-11T06:02:09.860Z,46.57
2023-05-11T06:04:36.823Z,45.37
2023-05-11T06:07:03.716Z,42.20
2023-05-11T06:09:30.464Z,45.37
2023-05-11T06:11:57.409Z,48.60
2023-05-11T06:14:24.167Z,50.37
2023-05-11T06:16:51.275Z,44.77
2023-05-11T06:19:18.145Z,46.27
2023-05-11T06:21:46.153Z,46.27
2023-05-11T06:24:12.974Z,44.53
2023-05-11T06:26:40.951Z,49.20
2023-05-11T06:29:08.157Z,54.17
2023-05-11T06:31:35.008Z,51.20
2023-05-11T06:34:01.825Z,50.87
2023-05-11T06:36:28.808Z,46.50
2023-05-11T06:38:56.304Z,55.67
2023-05-11T06:41:23.213Z,48.97
2023-05-11T06:43:50.065Z,50.50
2023-05-11T06:46:17.994Z,52.57
2023-05-11T06:48:44.987Z,55.33
2023-05-11T06:51:12.559Z,56.83
2023-05-11T06:53:39.547Z,55.27
2023-05-11T06:56:07.200Z,53.37
2023-05-11T06:58:34.068Z,51.17
2023-05-11T07:01:02.161Z,53.97
2023-05-11T07:03:29.138Z,50.37
2023-05-11T07:05:56.022Z,60.00
2023-05-11T07:08:22.768Z,57.53
2023-05-11T07:10:49.622Z,63.93
2023-05-11T07:13:16.434Z,53.77
2023-05-11T07:15:43.178Z,54.47
2023-05-11T07:18:10.006Z,48.83
2023-05-11T07:20:37.151Z,53.03
2023-05-11T07:23:03.911Z,51.93
2023-05-11T07:25:30.752Z,55.80
2023-05-11T07:27:57.520Z,46.50
2023-05-11T07:30:25.057Z,50.00
2023-05-11T07:32:52.056Z,48.77
2023-05-11T07:35:18.977Z,48.17
2023-05-11T07:37:45.701Z,48.87
2023-05-11T07:40:12.688Z,44.13
2023-05-11T07:42:39.651Z,49.47
2023-05-11T07:45:07.180Z,48.53
2023-05-11T07:47:36.761Z,49.33
2023-05-11T07:50:04.209Z,49.13
2023-05-11T07:52:31.098Z,55.35
2023-05-11T07:54:58.109Z,54.27
2023-05-11T07:57:24.918Z,44.03
2023-05-11T07:59:51.727Z,45.77
2023-05-11T08:02:19.175Z,53.40
2023-05-11T08:04:46.417Z,46.97
2023-05-11T08:07:13.246Z,46.40
2023-05-11T08:09:40.012Z,47.57
2023-05-11T08:12:07.232Z,49.87
2023-05-11T08:14:34.000Z,43.97
2023-05-11T08:17:00.960Z,50.33
2023-05-11T08:19:27.740Z,45.00
2023-05-11T08:21:54.638Z,45.00
2023-05-11T08:24:21.454Z,44.07
2023-05-11T08:26:48.531Z,44.87
2023-05-11T08:29:15.369Z,44.00
2023-05-11T08:31:42.191Z,38.30
2023-05-11T08:34:18.467Z,43.17
2023-05-11T08:36:46.927Z,38.43
2023-05-11T08:39:13.762Z,36.57
2023-05-11T08:41:40.526Z,38.80
2023-05-11T08:44:08.169Z,40.17
2023-05-11T08:46:36.371Z,34.93
2023-05-11T08:49:03.631Z,45.50
2023-05-11T08:51:30.682Z,38.77
2023-05-11T08:53:59.287Z,41.90
2023-05-11T08:56:30.516Z,35.40
2023-05-11T08:58:58.113Z,35.93
2023-05-11T09:01:28.677Z,33.60
2023-05-11T09:03:56.968Z,35.70
2023-05-11T09:06:26.708Z,37.03
2023-05-11T09:08:54.397Z,35.03
2023-05-11T09:11:22.920Z,40.90
2023-05-11T09:13:50.362Z,37.33
2023-05-11T09:16:35.773Z,37.57
2023-05-11T09:19:04.468Z,36.83
2023-05-11T09:21:32.011Z,33.73
2023-05-11T09:24:02.076Z,32.07
2023-05-11T09:26:29.930Z,32.40
2023-05-11T09:31:45.487Z,35.97
2023-05-11T09:34:20.941Z,28.07
2023-05-11T09:36:53.184Z,30.33
2023-05-11T09:39:42.242Z,35.17
2023-05-11T09:42:21.886Z,32.07
2023-05-11T09:44:48.971Z,42.97
2023-05-11T09:47:22.294Z,37.33
2023-05-11T09:49:49.281Z,40.97
2023-05-11T09:52:18.177Z,36.17
2023-05-11T09:54:47.864Z,40.43
2023-05-11T09:57:31.256Z,36.17
2023-05-11T09:59:59.976Z,32.97
2023-05-11T10:02:28.871Z,39.10
2023-05-11T10:04:58.086Z,37.00
2023-05-11T10:07:26.097Z,36.83
2023-05-11T10:09:55.662Z,32.50
2023-05-11T10:12:24.170Z,34.10
2023-05-11T10:14:54.392Z,35.40
2023-05-11T10:17:21.724Z,36.37
2023-05-11T10:19:49.720Z,36.17
2023-05-11T10:22:19.796Z,36.33
2023-05-11T10:24:47.419Z,37.83
2023-05-11T10:27:14.926Z,35.80
2023-05-11T10:29:43.604Z,36.80
2023-05-11T10:32:11.913Z,31.40
2023-05-11T10:34:41.881Z,40.07
2023-05-11T10:37:09.391Z,36.40
2023-05-11T10:39:46.090Z,32.27
2023-05-11T10:42:38.225Z,36.40
2023-05-11T10:45:35.891Z,30.40
2023-05-11T10:48:32.929Z,33.50
2023-05-11T10:51:27.257Z,33.83
2023-05-11T10:54:27.616Z,38.47
2023-05-11T10:57:04.865Z,34.87
2023-05-11T11:00:09.421Z,31.67
2023-05-11T11:02:37.647Z,38.67
2023-05-11T11:05:07.827Z,27.40
2023-05-11T11:07:57.782Z,35.53
2023-05-11T11:10:39.373Z,31.93
2023-05-11T11:13:08.796Z,35.00
2023-05-11T11:15:54.384Z,31.57
2023-05-11T11:18:26.638Z,30.40
2023-05-11T11:20:56.043Z,34.97
2023-05-11T11:23:45.390Z,31.53
2023-05-11T11:26:17.237Z,28.10
2023-05-11T11:29:00.759Z,31.33
2023-05-11T11:31:34.586Z,27.83
2023-05-11T11:34:27.772Z,32.33
2023-05-11T11:37:03.906Z,30.27
2023-05-11T11:39:42.890Z,28.60
2023-05-11T11:42:25.806Z,33.23
2023-05-11T11:44:52.607Z,29.80
2023-05-11T11:47:20.790Z,24.57
2023-05-11T11:49:53.412Z,26.97
2023-05-11T11:52:29.385Z,25.47
2023-05-11T11:54:59.866Z,23.97
2023-05-11T11:57:32.916Z,29.43
2023-05-11T12:00:11.877Z,23.23
2023-05-11T12:02:43.260Z,25.60
2023-05-11T12:05:23.450Z,24.10
2023-05-11T12:07:52.227Z,26.03
2023-05-11T12:10:23.139Z,24.10
2023-05-11T12:12:54.907Z,22.87
2023-05-11T12:15:30.036Z,26.47
2023-05-11T12:17:57.325Z,24.33
2023-05-11T12:20:25.411Z,25.87
2023-05-11T12:22:52.259Z,23.33
2023-05-11T12:25:20.730Z,21.60
2023-05-11T12:27:58.279Z,25.73
2023-05-11T12:30:26.926Z,20.53
2023-05-11T12:32:57.368Z,20.27
2023-05-11T12:35:29.911Z,23.20
2023-05-11T12:37:58.010Z,24.27
2023-05-11T12:40:24.927Z,19.87
2023-05-11T12:42:53.775Z,20.73
2023-05-11T12:45:22.637Z,20.77
2023-05-11T12:47:51.171Z,17.70
2023-05-11T12:50:18.712Z,18.40
2023-05-11T12:52:45.876Z,16.20
2023-05-11T12:55:12.825Z,16.70
2023-05-11T12:57:40.664Z,16.63
2023-05-11T13:00:10.106Z,14.97
2023-05-11T13:02:44.978Z,18.57
2023-05-11T13:05:14.007Z,15.87
2023-05-11T13:07:41.311Z,15.33
2023-05-11T13:10:08.524Z,14.97
2023-05-11T13:12:47.265Z,16.20
2023-05-11T13:15:14.028Z,12.27
2023-05-11T13:17:42.690Z,10.50
2023-05-11T13:20:19.592Z,15.87
2023-05-11T13:22:48.339Z,14.53
2023-05-11T13:25:17.197Z,16.43
2023-05-11T13:27:44.560Z,13.07
2023-05-11T13:30:11.967Z,14.17
2023-05-11T13:32:39.731Z,12.70
2023-05-11T13:35:07.220Z,15.63
2023-05-11T13:37:34.051Z,11.53
2023-05-11T13:40:00.972Z,15.00
2023-05-11T13:42:29.047Z,15.10
2023-05-11T13:44:56.223Z,13.80
2023-05-11T13:47:23.193Z,15.17
2023-05-11T13:49:50.236Z,17.77
2023-05-11T13:52:17.047Z,16.03
2023-05-11T13:54:43.809Z,12.67
2023-05-11T13:57:10.844Z,15.17
2023-05-11T13:59:37.775Z,16.43
2023-05-11T14:02:04.755Z,15.37
2023-05-11T14:04:31.948Z,17.43
2023-05-11T14:06:59.740Z,12.47
2023-05-11T14:09:26.730Z,12.47
2023-05-11T14:11:53.638Z,10.13
2023-05-11T14:14:20.659Z,10.23
2023-05-11T14:16:47.570Z,9.50
2023-05-11T14:19:15.374Z,9.80
2023-05-11T14:21:42.469Z,14.43
2023-05-11T14:24:12.542Z,12.87
2023-05-11T14:26:40.238Z,13.27
2023-05-11T14:29:07.141Z,13.73
2023-05-11T14:31:35.869Z,10.53
2023-05-11T14:34:04.230Z,12.00
2023-05-11T14:36:32.060Z,13.93
2023-05-11T14:38:58.828Z,10.83
2023-05-11T14:41:25.950Z,11.13
2023-05-11T14:43:52.820Z,12.30
2023-05-11T14:46:19.779Z,13.90
2023-05-11T14:48:46.837Z,13.67
2023-05-11T14:51:13.948Z,11.53
2023-05-11T14:53:40.880Z,13.70
2023-05-11T14:56:07.856Z,11.67
2023-05-11T14:58:35.049Z,11.30
2023-05-11T15:01:02.048Z,10.73
2023-05-11T15:03:29.157Z,13.13
2023-05-11T15:05:56.037Z,13.13
2023-05-11T15:08:29.671Z,10.17
2023-05-11T15:10:57.452Z,10.30
2023-05-11T15:13:24.436Z,8.67
2023-05-11T15:15:51.776Z,11.70
2023-05-11T15:18:19.178Z,9.90
2023-05-11T15:20:46.824Z,10.33
2023-05-11T15:23:17.116Z,9.70
2023-05-11T15:25:44.851Z,8.03
2023-05-11T15:28:12.310Z,7.60
2023-05-11T15:30:41.407Z,10.00
2023-05-11T15:33:10.297Z,9.13
2023-05-11T15:35:37.993Z,7.40
2023-05-11T15:38:05.568Z,10.10
2023-05-11T15:40:33.019Z,7.27
2023-05-11T15:43:00.605Z,8.63
2023-05-11T15:45:28.078Z,6.90
2023-05-11T15:47:55.569Z,7.87
2023-05-11T15:50:22.836Z,4.90
2023-05-11T15:52:49.719Z,6.00
2023-05-11T15:55:16.700Z,6.07
2023-05-11T15:57:43.605Z,4.40
2023-05-11T16:00:11.548Z,4.10
2023-05-11T16:02:38.742Z,5.30
2023-05-11T16:05:06.362Z,4.33
2023-05-11T16:07:33.267Z,4.80
2023-05-11T16:10:00.169Z,4.77
2023-05-11T16:12:27.193Z,5.17
2023-05-11T16:14:54.024Z,5.73
2023-05-11T16:17:20.947Z,6.33
2023-05-11T16:19:47.918Z,5.17
2023-05-11T16:22:14.730Z,5.77
2023-05-11T16:24:41.562Z,6.47
2023-05-11T16:27:08.341Z,5.90
2023-05-11T16:29:35.411Z,6.70
2023-05-11T16:32:02.361Z,6.67
2023-05-11T16:34:29.239Z,7.33
2023-05-11T16:36:58.582Z,6.37
2023-05-11T16:39:26.773Z,5.97
2023-05-11T16:41:53.662Z,9.30
2023-05-11T16:44:20.458Z,8.00
2023-05-11T16:46:48.318Z,5.80
2023-05-11T16:49:15.231Z,5.50
2023-05-11T16:51:43.386Z,5.20
2023-05-11T16:54:10.603Z,5.60
2023-05-11T16:56:37.638Z,6.97
2023-05-11T16:59:04.522Z,5.07
2023-05-11T17:01:32.615Z,5.33
2023-05-11T17:03:59.517Z,6.23
2023-05-11T17:06:27.565Z,5.53
2023-05-11T17:08:54.760Z,7.17
2023-05-11T17:11:21.752Z,5.17
2023-05-11T17:13:48.647Z,6.13
2023-05-11T17:16:15.587Z,7.57
2023-05-11T17:18:42.797Z,6.43
2023-05-11T17:21:10.510Z,4.70
2023-05-11T17:23:37.450Z,5.97
2023-05-11T17:26:10.195Z,7.10
2023-05-11T17:28:38.034Z,5.80
2023-05-11T17:31:13.035Z,5.33
2023-05-11T17:33:41.154Z,7.53
2023-05-11T17:36:09.639Z,8.90
2023-05-11T17:38:36.888Z,7.03
2023-05-11T17:41:07.091Z,6.63
2023-05-11T17:43:35.428Z,6.90
2023-05-11T17:46:05.381Z,8.27
2023-05-11T17:48:32.578Z,9.20
2023-05-11T17:50:59.442Z,8.50
2023-05-11T17:53:27.255Z,6.80
2023-05-11T17:55:54.335Z,10.20
2023-05-11T17:58:21.229Z,7.90
2023-05-11T18:00:49.182Z,7.27
2023-05-11T18:03:17.036Z,9.17
2023-05-11T18:08:14.327Z,8.03
2023-05-11T18:10:41.176Z,8.97
2023-05-11T18:13:08.904Z,10.07
2023-05-11T18:15:35.730Z,10.73
2023-05-11T18:18:02.617Z,9.60
2023-05-11T18:20:29.497Z,11.17
2023-05-11T18:22:56.903Z,9.73
2023-05-11T18:25:24.728Z,8.00
2023-05-11T18:27:51.654Z,9.23
2023-05-11T18:30:18.815Z,9.53
2023-05-11T18:32:45.883Z,9.57
2023-05-11T18:35:12.696Z,10.00
2023-05-11T18:37:39.553Z,11.80
2023-05-11T18:40:07.692Z,9.17
2023-05-11T18:42:34.724Z,9.20
2023-05-11T18:45:01.877Z,10.40
2023-05-11T18:47:28.840Z,6.10
2023-05-11T18:49:57.280Z,6.30
2023-05-11T18:52:24.054Z,3.67
2023-05-11T18:54:50.867Z,3.77
2023-05-11T18:57:20.235Z,3.30
2023-05-11T18:59:51.569Z,3.73
2023-05-11T19:02:18.421Z,3.13
2023-05-11T19:04:45.273Z,2.40
2023-05-11T19:07:12.094Z,2.77
2023-05-11T19:09:38.885Z,3.70
2023-05-11T19:12:05.931Z,4.17
2023-05-11T19:14:35.007Z,2.20
2023-05-11T19:17:02.621Z,2.83
2023-05-11T19:19:29.556Z,2.70
2023-05-11T19:21:56.491Z,2.43
2023-05-11T19:24:23.263Z,3.07
2023-05-11T19:27:02.563Z,4.03
2023-05-11T19:29:33.269Z,3.87
2023-05-11T19:32:00.269Z,2.67
2023-05-11T19:34:27.314Z,2.77
2023-05-11T19:36:54.119Z,4.03
2023-05-11T19:39:20.987Z,4.60
2023-05-11T19:41:47.804Z,3.97
2023-05-11T19:44:14.632Z,11.20
2023-05-11T19:46:46.370Z,3.93
2023-05-11T19:49:17.460Z,3.70
2023-05-11T19:51:44.336Z,4.57
2023-05-11T19:54:11.565Z,4.67
2023-05-11T19:56:39.336Z,4.23
2023-05-11T19:59:06.188Z,4.50
2023-05-11T20:01:33.097Z,3.93
2023-05-11T20:04:00.103Z,4.00
2023-05-11T20:06:27.059Z,3.40
2023-05-11T20:08:54.369Z,5.27
2023-05-11T20:11:22.233Z,3.87
2023-05-11T20:13:49.360Z,5.30
2023-05-11T20:16:16.397Z,3.73
2023-05-11T20:18:43.554Z,4.47
2023-05-11T20:21:10.575Z,5.00
2023-05-11T20:23:39.329Z,4.20
2023-05-11T20:26:06.566Z,7.70
2023-05-11T20:28:33.447Z,5.13
2023-05-11T20:31:00.340Z,6.33
2023-05-11T20:35:57.044Z,5.43
2023-05-11T20:38:23.973Z,5.00
2023-05-11T20:40:55.505Z,5.70
2023-05-11T20:43:22.256Z,6.53
2023-05-11T20:45:49.108Z,6.77
2023-05-11T20:50:50.073Z,6.43
2023-05-11T20:53:16.914Z,7.20
2023-05-11T20:55:43.702Z,5.80
2023-05-11T20:58:11.042Z,8.03
2023-05-11T21:00:39.420Z,8.40
2023-05-11T21:03:07.506Z,7.17
2023-05-11T21:05:35.132Z,6.83
2023-05-11T21:08:01.899Z,8.00
2023-05-11T21:10:28.760Z,6.90
2023-05-11T21:12:55.801Z,8.17
2023-05-11T21:15:22.648Z,7.33
2023-05-11T21:17:49.513Z,7.77
2023-05-11T21:20:16.459Z,9.03
2023-05-11T21:22:43.439Z,7.30
2023-05-11T21:25:10.274Z,8.57
2023-05-11T21:27:37.044Z,9.87
2023-05-11T21:30:04.662Z,8.93
2023-05-11T21:32:31.490Z,9.17
2023-05-11T21:34:58.333Z,7.77
2023-05-11T21:37:25.130Z,8.33
2023-05-11T21:39:52.492Z,9.03
2023-05-11T21:42:19.365Z,9.30
2023-05-11T21:44:46.162Z,8.53
2023-05-11T21:47:12.951Z,9.17
2023-05-11T21:49:39.777Z,10.03
2023-05-11T21:52:06.810Z,8.90
2023-05-11T21:54:34.077Z,9.23
2023-05-11T21:57:00.952Z,10.27
2023-05-11T21:59:27.722Z,8.87
2023-05-11T22:01:57.177Z,8.37
2023-05-11T22:04:24.337Z,9.37
2023-05-11T22:06:51.193Z,9.33
2023-05-11T22:09:18.196Z,8.73
2023-05-11T22:11:45.015Z,8.97
2023-05-11T22:14:11.785Z,8.57
2023-05-11T22:16:38.652Z,8.77
2023-05-11T22:19:06.079Z,10.43
2023-05-11T22:21:32.852Z,9.87
2023-05-11T22:23:59.672Z,8.57
2023-05-11T22:26:26.906Z,13.73
2023-05-11T22:28:53.737Z,9.27
2023-05-11T22:31:20.653Z,9.17
2023-05-11T22:33:47.435Z,9.27
2023-05-11T22:36:14.203Z,9.40
2023-05-11T22:38:44.137Z,11.80
2023-05-11T22:41:10.994Z,9.80
2023-05-11T22:43:37.773Z,9.07
2023-05-11T22:46:05.036Z,8.53
2023-05-11T22:48:32.016Z,7.97
2023-05-11T22:50:58.903Z,11.53
2023-05-11T22:53:26.118Z,9.83
2023-05-11T22:55:52.927Z,10.93
2023-05-11T22:58:19.954Z,9.43
2023-05-11T23:00:47.010Z,9.87
2023-05-11T23:03:14.059Z,8.27
2023-05-11T23:05:41.065Z,11.53
2023-05-11T23:08:07.972Z,9.87
2023-05-11T23:10:34.792Z,9.20
2023-05-11T23:13:01.664Z,10.87
2023-05-11T23:15:28.596Z,10.13
2023-05-11T23:17:55.628Z,9.60
2023-05-11T23:20:22.900Z,9.70
2023-05-11T23:22:49.699Z,8.70
2023-05-11T23:25:16.569Z,10.00
2023-05-11T23:27:43.373Z,7.67
2023-05-11T23:30:10.528Z,5.60
2023-05-11T23:32:37.480Z,5.33
2023-05-11T23:35:04.731Z,6.07
2023-05-11T23:37:31.592Z,5.20
2023-05-11T23:39:58.394Z,4.60
2023-05-11T23:42:25.201Z,7.00
2023-05-11T23:44:51.986Z,5.30
2023-05-11T23:47:19.009Z,4.70
2023-05-11T23:49:45.917Z,5.67
2023-05-11T23:52:12.784Z,5.13
2023-05-11T23:54:39.636Z,5.40
2023-05-11T23:57:06.568Z,6.17
2023-05-11T23:59:33.418Z,7.57
